sensor_id;sensor_type;location;lat;lon;timestamp;temperature;humidity
66576;SHT31;53428;47.686;16.584;2024-03-17T00:00:28;11.51;83.45
66576;SHT31;53428;47.686;16.584;2024-03-17T00:05:28;11.46;83.25
66576;SHT31;53428;47.686;16.584;2024-03-17T00:10:27;11.44;83.26
66576;SHT31;53428;47.686;16.584;2024-03-17T00:15:26;11.20;83.72
66576;SHT31;53428;47.686;16.584;2024-03-17T00:20:25;10.96;84.43
66576;SHT31;53428;47.686;16.584;2024-03-17T00:25:25;10.86;84.69
66576;SHT31;53428;47.686;16.584;2024-03-17T00:30:25;10.78;84.98
66576;SHT31;53428;47.686;16.584;2024-03-17T00:35:25;10.65;85.40
66576;SHT31;53428;47.686;16.584;2024-03-17T00:40:24;10.67;85.32
66576;SHT31;53428;47.686;16.584;2024-03-17T00:45:23;10.60;85.47
66576;SHT31;53428;47.686;16.584;2024-03-17T00:50:22;10.54;85.70
66576;SHT31;53428;47.686;16.584;2024-03-17T00:55:22;10.52;86.21
66576;SHT31;53428;47.686;16.584;2024-03-17T01:00:21;10.60;86.18
66576;SHT31;53428;47.686;16.584;2024-03-17T01:05:20;10.55;86.41
66576;SHT31;53428;47.686;16.584;2024-03-17T01:10:19;10.57;86.78
66576;SHT31;53428;47.686;16.584;2024-03-17T01:15:19;10.55;87.36
66576;SHT31;53428;47.686;16.584;2024-03-17T01:20:18;10.47;87.76
66576;SHT31;53428;47.686;16.584;2024-03-17T01:25:17;10.37;89.41
66576;SHT31;53428;47.686;16.584;2024-03-17T01:30:16;10.04;90.88
66576;SHT31;53428;47.686;16.584;2024-03-17T01:35:16;9.82;94.02
66576;SHT31;53428;47.686;16.584;2024-03-17T01:40:15;9.51;95.52
66576;SHT31;53428;47.686;16.584;2024-03-17T01:45:27;9.27;97.41
66576;SHT31;53428;47.686;16.584;2024-03-17T01:50:36;9.16;97.96
66576;SHT31;53428;47.686;16.584;2024-03-17T01:55:42;8.99;99.45
66576;SHT31;53428;47.686;16.584;2024-03-17T02:00:42;8.94;99.99
66576;SHT31;53428;47.686;16.584;2024-03-17T02:05:41;8.89;99.99
66576;SHT31;53428;47.686;16.584;2024-03-17T02:10:41;8.87;99.99
66576;SHT31;53428;47.686;16.584;2024-03-17T02:15:40;8.83;99.94
66576;SHT31;53428;47.686;16.584;2024-03-17T02:20:39;8.81;99.41
66576;SHT31;53428;47.686;16.584;2024-03-17T02:25:54;8.72;99.83
66576;SHT31;53428;47.686;16.584;2024-03-17T02:30:53;8.75;98.79
66576;SHT31;53428;47.686;16.584;2024-03-17T02:35:52;8.52;99.33
66576;SHT31;53428;47.686;16.584;2024-03-17T02:40:51;8.42;99.99
66576;SHT31;53428;47.686;16.584;2024-03-17T02:45:51;8.27;99.99
66576;SHT31;53428;47.686;16.584;2024-03-17T02:50:50;8.27;99.99
66576;SHT31;53428;47.686;16.584;2024-03-17T02:55:49;8.18;99.99
66576;SHT31;53428;47.686;16.584;2024-03-17T03:00:48;8.11;99.99
66576;SHT31;53428;47.686;16.584;2024-03-17T03:05:48;8.17;99.99
66576;SHT31;53428;47.686;16.584;2024-03-17T03:10:48;8.04;99.99
66576;SHT31;53428;47.686;16.584;2024-03-17T03:15:48;8.03;99.99
66576;SHT31;53428;47.686;16.584;2024-03-17T03:20:51;7.93;99.99
66576;SHT31;53428;47.686;16.584;2024-03-17T03:25:54;7.95;99.99
66576;SHT31;53428;47.686;16.584;2024-03-17T03:30:54;7.87;99.99
66576;SHT31;53428;47.686;16.584;2024-03-17T03:35:54;7.98;99.99
66576;SHT31;53428;47.686;16.584;2024-03-17T03:40:54;7.91;99.99
66576;SHT31;53428;47.686;16.584;2024-03-17T03:45:53;7.86;99.99
66576;SHT31;53428;47.686;16.584;2024-03-17T03:50:52;7.70;99.03
66576;SHT31;53428;47.686;16.584;2024-03-17T03:55:53;7.48;96.75
66576;SHT31;53428;47.686;16.584;2024-03-17T04:00:52;7.05;93.94
66576;SHT31;53428;47.686;16.584;2024-03-17T04:05:51;6.90;95.80
66576;SHT31;53428;47.686;16.584;2024-03-17T04:10:53;6.79;94.18
66576;SHT31;53428;47.686;16.584;2024-03-17T04:15:52;6.69;95.23
66576;SHT31;53428;47.686;16.584;2024-03-17T04:20:55;6.56;95.52
66576;SHT31;53428;47.686;16.584;2024-03-17T04:25:55;6.52;96.85
66576;SHT31;53428;47.686;16.584;2024-03-17T04:31:05;6.60;93.84
66576;SHT31;53428;47.686;16.584;2024-03-17T04:36:04;6.52;95.98
66576;SHT31;53428;47.686;16.584;2024-03-17T04:41:04;6.53;94.78
66576;SHT31;53428;47.686;16.584;2024-03-17T04:46:04;6.56;94.18
66576;SHT31;53428;47.686;16.584;2024-03-17T04:51:04;6.62;91.69
66576;SHT31;53428;47.686;16.584;2024-03-17T04:56:05;6.48;93.02
66576;SHT31;53428;47.686;16.584;2024-03-17T05:01:08;6.53;91.35
66576;SHT31;53428;47.686;16.584;2024-03-17T05:06:07;6.49;90.73
66576;SHT31;53428;47.686;16.584;2024-03-17T05:11:06;6.42;90.79
66576;SHT31;53428;47.686;16.584;2024-03-17T05:16:06;6.40;90.72
66576;SHT31;53428;47.686;16.584;2024-03-17T05:21:06;6.38;91.08
66576;SHT31;53428;47.686;16.584;2024-03-17T05:26:06;6.42;91.00
66576;SHT31;53428;47.686;16.584;2024-03-17T05:31:05;6.33;91.07
66576;SHT31;53428;47.686;16.584;2024-03-17T05:36:04;6.32;92.85
66576;SHT31;53428;47.686;16.584;2024-03-17T05:41:06;6.46;93.76
66576;SHT31;53428;47.686;16.584;2024-03-17T05:46:07;6.56;92.33
66576;SHT31;53428;47.686;16.584;2024-03-17T05:51:08;6.63;92.76
66576;SHT31;53428;47.686;16.584;2024-03-17T05:56:07;6.72;92.55
66576;SHT31;53428;47.686;16.584;2024-03-17T06:01:08;6.67;93.39
66576;SHT31;53428;47.686;16.584;2024-03-17T06:06:08;6.80;94.23
66576;SHT31;53428;47.686;16.584;2024-03-17T06:11:10;6.88;94.40
66576;SHT31;53428;47.686;16.584;2024-03-17T06:16:09;7.00;95.00
66576;SHT31;53428;47.686;16.584;2024-03-17T06:21:09;7.00;94.88
66576;SHT31;53428;47.686;16.584;2024-03-17T06:26:12;6.97;95.50
66576;SHT31;53428;47.686;16.584;2024-03-17T06:31:11;7.16;94.10
66576;SHT31;53428;47.686;16.584;2024-03-17T06:36:10;7.08;95.01
66576;SHT31;53428;47.686;16.584;2024-03-17T06:41:10;7.19;92.96
66576;SHT31;53428;47.686;16.584;2024-03-17T06:46:09;7.19;94.13
66576;SHT31;53428;47.686;16.584;2024-03-17T06:51:09;7.29;91.94
66576;SHT31;53428;47.686;16.584;2024-03-17T06:56:08;7.31;93.10
66576;SHT31;53428;47.686;16.584;2024-03-17T07:01:08;7.28;91.75
66576;SHT31;53428;47.686;16.584;2024-03-17T07:06:09;7.36;91.98
66576;SHT31;53428;47.686;16.584;2024-03-17T07:11:09;7.48;90.98
66576;SHT31;53428;47.686;16.584;2024-03-17T07:16:09;7.69;90.38
66576;SHT31;53428;47.686;16.584;2024-03-17T07:21:09;7.67;90.10
66576;SHT31;53428;47.686;16.584;2024-03-17T07:26:09;7.72;89.15
66576;SHT31;53428;47.686;16.584;2024-03-17T07:31:09;7.69;89.33
66576;SHT31;53428;47.686;16.584;2024-03-17T07:36:08;7.87;87.43
66576;SHT31;53428;47.686;16.584;2024-03-17T07:41:09;8.01;84.86
66576;SHT31;53428;47.686;16.584;2024-03-17T07:46:10;8.07;83.06
66576;SHT31;53428;47.686;16.584;2024-03-17T07:51:14;7.80;80.78
66576;SHT31;53428;47.686;16.584;2024-03-17T07:56:14;7.72;81.64
66576;SHT31;53428;47.686;16.584;2024-03-17T08:01:15;7.87;80.19
66576;SHT31;53428;47.686;16.584;2024-03-17T08:06:15;8.04;79.56
66576;SHT31;53428;47.686;16.584;2024-03-17T08:11:14;8.10;80.06
66576;SHT31;53428;47.686;16.584;2024-03-17T08:16:14;8.37;79.96
66576;SHT31;53428;47.686;16.584;2024-03-17T08:21:13;8.32;78.91
66576;SHT31;53428;47.686;16.584;2024-03-17T08:26:13;8.24;77.68
66576;SHT31;53428;47.686;16.584;2024-03-17T08:31:12;8.46;77.92
66576;SHT31;53428;47.686;16.584;2024-03-17T08:36:12;8.52;77.27
66576;SHT31;53428;47.686;16.584;2024-03-17T08:41:16;8.69;76.39
66576;SHT31;53428;47.686;16.584;2024-03-17T08:46:15;8.51;75.61
66576;SHT31;53428;47.686;16.584;2024-03-17T08:51:14;8.93;75.28
66576;SHT31;53428;47.686;16.584;2024-03-17T08:56:13;9.10;75.07
66576;SHT31;53428;47.686;16.584;2024-03-17T09:01:14;9.37;74.69
66576;SHT31;53428;47.686;16.584;2024-03-17T09:06:15;9.74;73.39
66576;SHT31;53428;47.686;16.584;2024-03-17T09:11:15;9.90;73.69
66576;SHT31;53428;47.686;16.584;2024-03-17T09:16:14;9.97;73.18
66576;SHT31;53428;47.686;16.584;2024-03-17T09:21:17;9.63;73.06
66576;SHT31;53428;47.686;16.584;2024-03-17T09:26:16;9.89;72.63
66576;SHT31;53428;47.686;16.584;2024-03-17T09:31:16;10.00;71.67
66576;SHT31;53428;47.686;16.584;2024-03-17T09:36:15;9.97;71.84
66576;SHT31;53428;47.686;16.584;2024-03-17T09:41:22;10.44;71.63
66576;SHT31;53428;47.686;16.584;2024-03-17T09:46:24;10.67;70.24
66576;SHT31;53428;47.686;16.584;2024-03-17T09:51:25;11.34;69.24
66576;SHT31;53428;47.686;16.584;2024-03-17T09:56:24;11.22;69.66
66576;SHT31;53428;47.686;16.584;2024-03-17T10:01:24;12.02;68.58
66576;SHT31;53428;47.686;16.584;2024-03-17T10:06:25;11.96;68.42
66576;SHT31;53428;47.686;16.584;2024-03-17T10:11:34;12.12;67.76
66576;SHT31;53428;47.686;16.584;2024-03-17T10:16:36;11.23;67.98
66576;SHT31;53428;47.686;16.584;2024-03-17T10:26:56;12.19;65.93
66576;SHT31;53428;47.686;16.584;2024-03-17T10:32:03;11.56;67.54
66576;SHT31;53428;47.686;16.584;2024-03-17T10:37:09;11.66;67.39
66576;SHT31;53428;47.686;16.584;2024-03-17T10:42:12;11.85;67.18
66576;SHT31;53428;47.686;16.584;2024-03-17T10:47:23;12.28;66.05
66576;SHT31;53428;47.686;16.584;2024-03-17T10:52:23;11.67;67.37
66576;SHT31;53428;47.686;16.584;2024-03-17T11:02:36;12.29;66.14
66576;SHT31;53428;47.686;16.584;2024-03-17T11:07:35;12.92;65.55
66576;SHT31;53428;47.686;16.584;2024-03-17T11:12:48;12.79;66.49
66576;SHT31;53428;47.686;16.584;2024-03-17T11:17:49;12.76;65.20
66576;SHT31;53428;47.686;16.584;2024-03-17T11:22:54;13.15;65.29
66576;SHT31;53428;47.686;16.584;2024-03-17T11:27:53;13.15;66.10
66576;SHT31;53428;47.686;16.584;2024-03-17T11:32:52;14.20;63.50
66576;SHT31;53428;47.686;16.584;2024-03-17T11:37:52;15.86;61.07
66576;SHT31;53428;47.686;16.584;2024-03-17T11:43:03;15.17;62.04
66576;SHT31;53428;47.686;16.584;2024-03-17T11:48:12;15.82;61.47
66576;SHT31;53428;47.686;16.584;2024-03-17T11:53:12;13.65;65.57
66576;SHT31;53428;47.686;16.584;2024-03-17T11:58:13;15.82;61.09
66576;SHT31;53428;47.686;16.584;2024-03-17T12:03:14;15.11;61.97
66576;SHT31;53428;47.686;16.584;2024-03-17T12:08:20;14.92;63.46
66576;SHT31;53428;47.686;16.584;2024-03-17T12:13:19;16.23;61.44
66576;SHT31;53428;47.686;16.584;2024-03-17T12:18:20;15.98;62.30
66576;SHT31;53428;47.686;16.584;2024-03-17T12:23:20;17.03;59.83
66576;SHT31;53428;47.686;16.584;2024-03-17T12:28:20;16.67;60.49
66576;SHT31;53428;47.686;16.584;2024-03-17T12:33:19;15.59;61.66
66576;SHT31;53428;47.686;16.584;2024-03-17T12:38:21;16.00;61.47
66576;SHT31;53428;47.686;16.584;2024-03-17T12:43:23;15.73;61.61
66576;SHT31;53428;47.686;16.584;2024-03-17T12:48:23;16.93;59.65
66576;SHT31;53428;47.686;16.584;2024-03-17T12:53:22;17.26;58.94
66576;SHT31;53428;47.686;16.584;2024-03-17T12:58:21;16.81;60.13
66576;SHT31;53428;47.686;16.584;2024-03-17T13:03:39;17.32;58.82
66576;SHT31;53428;47.686;16.584;2024-03-17T13:08:39;16.37;58.52
66576;SHT31;53428;47.686;16.584;2024-03-17T13:13:39;16.31;58.79
66576;SHT31;53428;47.686;16.584;2024-03-17T13:18:38;17.23;58.43
66576;SHT31;53428;47.686;16.584;2024-03-17T13:23:38;16.45;59.99
66576;SHT31;53428;47.686;16.584;2024-03-17T13:28:37;17.54;58.59
66576;SHT31;53428;47.686;16.584;2024-03-17T13:33:36;15.83;60.23
66576;SHT31;53428;47.686;16.584;2024-03-17T13:38:35;15.69;61.70
66576;SHT31;53428;47.686;16.584;2024-03-17T13:43:36;15.93;60.49
66576;SHT31;53428;47.686;16.584;2024-03-17T13:48:35;15.79;62.35
66576;SHT31;53428;47.686;16.584;2024-03-17T13:53:35;14.62;63.29
66576;SHT31;53428;47.686;16.584;2024-03-17T13:58:34;15.14;62.17
66576;SHT31;53428;47.686;16.584;2024-03-17T14:03:33;15.52;61.50
66576;SHT31;53428;47.686;16.584;2024-03-17T14:08:32;15.03;61.98
66576;SHT31;53428;47.686;16.584;2024-03-17T14:13:31;15.41;60.94
66576;SHT31;53428;47.686;16.584;2024-03-17T14:18:31;16.30;59.84
66576;SHT31;53428;47.686;16.584;2024-03-17T14:23:34;18.71;55.73
66576;SHT31;53428;47.686;16.584;2024-03-17T14:28:33;18.40;53.57
66576;SHT31;53428;47.686;16.584;2024-03-17T14:33:33;17.66;55.58
66576;SHT31;53428;47.686;16.584;2024-03-17T14:38:32;18.09;55.25
66576;SHT31;53428;47.686;16.584;2024-03-17T14:43:31;19.98;51.45
66576;SHT31;53428;47.686;16.584;2024-03-17T14:48:30;20.48;50.93
66576;SHT31;53428;47.686;16.584;2024-03-17T14:53:29;16.96;57.59
66576;SHT31;53428;47.686;16.584;2024-03-17T14:58:29;15.82;58.64
66576;SHT31;53428;47.686;16.584;2024-03-17T15:03:28;14.61;61.54
66576;SHT31;53428;47.686;16.584;2024-03-17T15:08:28;14.15;62.94
66576;SHT31;53428;47.686;16.584;2024-03-17T15:13:27;13.23;64.85
66576;SHT31;53428;47.686;16.584;2024-03-17T15:18:26;13.22;64.29
66576;SHT31;53428;47.686;16.584;2024-03-17T15:23:25;12.61;66.23
66576;SHT31;53428;47.686;16.584;2024-03-17T15:28:30;13.04;65.78
66576;SHT31;53428;47.686;16.584;2024-03-17T15:33:29;13.31;64.46
66576;SHT31;53428;47.686;16.584;2024-03-17T15:38:29;14.15;62.35
66576;SHT31;53428;47.686;16.584;2024-03-17T15:43:30;14.06;63.65
66576;SHT31;53428;47.686;16.584;2024-03-17T15:48:31;13.26;64.14
66576;SHT31;53428;47.686;16.584;2024-03-17T15:53:30;12.90;65.56
66576;SHT31;53428;47.686;16.584;2024-03-17T15:58:30;12.71;65.62
66576;SHT31;53428;47.686;16.584;2024-03-17T16:03:30;12.30;66.85
66576;SHT31;53428;47.686;16.584;2024-03-17T16:08:30;12.19;67.07
66576;SHT31;53428;47.686;16.584;2024-03-17T16:13:30;11.98;67.57
66576;SHT31;53428;47.686;16.584;2024-03-17T16:18:30;12.02;67.47
66576;SHT31;53428;47.686;16.584;2024-03-17T16:23:31;11.79;68.20
66576;SHT31;53428;47.686;16.584;2024-03-17T16:28:33;11.54;69.03
66576;SHT31;53428;47.686;16.584;2024-03-17T16:33:36;11.36;69.59
66576;SHT31;53428;47.686;16.584;2024-03-17T16:38:36;11.13;70.10
66576;SHT31;53428;47.686;16.584;2024-03-17T16:48:58;10.75;71.34
66576;SHT31;53428;47.686;16.584;2024-03-17T16:53:57;10.60;71.64
66576;SHT31;53428;47.686;16.584;2024-03-17T16:58:57;10.62;71.73
66576;SHT31;53428;47.686;16.584;2024-03-17T17:03:57;10.51;71.85
66576;SHT31;53428;47.686;16.584;2024-03-17T17:08:56;10.45;72.19
66576;SHT31;53428;47.686;16.584;2024-03-17T17:13:55;10.55;72.62
66576;SHT31;53428;47.686;16.584;2024-03-17T17:18:58;10.67;71.87
66576;SHT31;53428;47.686;16.584;2024-03-17T17:24:00;10.76;72.37
66576;SHT31;53428;47.686;16.584;2024-03-17T17:29:03;10.76;72.32
66576;SHT31;53428;47.686;16.584;2024-03-17T17:34:02;10.81;70.76
66576;SHT31;53428;47.686;16.584;2024-03-17T17:39:02;10.88;70.83
66576;SHT31;53428;47.686;16.584;2024-03-17T17:44:01;10.88;70.32
66576;SHT31;53428;47.686;16.584;2024-03-17T17:49:00;10.85;70.24
66576;SHT31;53428;47.686;16.584;2024-03-17T17:54:00;10.93;70.53
66576;SHT31;53428;47.686;16.584;2024-03-17T17:58:59;10.82;70.91
66576;SHT31;53428;47.686;16.584;2024-03-17T18:03:58;10.72;71.04
66576;SHT31;53428;47.686;16.584;2024-03-17T18:09:00;10.68;71.35
66576;SHT31;53428;47.686;16.584;2024-03-17T18:14:08;10.75;71.17
66576;SHT31;53428;47.686;16.584;2024-03-17T18:19:07;10.67;70.78
66576;SHT31;53428;47.686;16.584;2024-03-17T18:24:08;10.67;70.72
66576;SHT31;53428;47.686;16.584;2024-03-17T18:29:08;10.67;70.86
66576;SHT31;53428;47.686;16.584;2024-03-17T18:34:07;10.57;70.79
66576;SHT31;53428;47.686;16.584;2024-03-17T18:39:07;10.64;70.85
66576;SHT31;53428;47.686;16.584;2024-03-17T18:44:08;10.55;71.21
66576;SHT31;53428;47.686;16.584;2024-03-17T18:49:08;10.51;71.30
66576;SHT31;53428;47.686;16.584;2024-03-17T18:54:09;10.44;71.20
66576;SHT31;53428;47.686;16.584;2024-03-17T18:59:10;10.44;70.59
66576;SHT31;53428;47.686;16.584;2024-03-17T19:04:11;10.37;71.31
66576;SHT31;53428;47.686;16.584;2024-03-17T19:09:11;10.24;71.28
66576;SHT31;53428;47.686;16.584;2024-03-17T19:14:10;10.27;70.44
66576;SHT31;53428;47.686;16.584;2024-03-17T19:19:10;10.27;69.55
66576;SHT31;53428;47.686;16.584;2024-03-17T19:24:10;10.20;70.44
66576;SHT31;53428;47.686;16.584;2024-03-17T19:29:09;10.04;70.85
66576;SHT31;53428;47.686;16.584;2024-03-17T19:34:09;9.89;71.23
66576;SHT31;53428;47.686;16.584;2024-03-17T19:39:09;9.83;70.97
66576;SHT31;53428;47.686;16.584;2024-03-17T19:44:09;9.78;70.97
66576;SHT31;53428;47.686;16.584;2024-03-17T19:49:09;9.82;70.58
66576;SHT31;53428;47.686;16.584;2024-03-17T19:54:08;9.78;70.54
66576;SHT31;53428;47.686;16.584;2024-03-17T19:59:08;9.66;71.39
66576;SHT31;53428;47.686;16.584;2024-03-17T20:04:07;9.59;72.16
66576;SHT31;53428;47.686;16.584;2024-03-17T20:09:07;9.52;72.22
66576;SHT31;53428;47.686;16.584;2024-03-17T20:14:06;9.49;72.44
66576;SHT31;53428;47.686;16.584;2024-03-17T20:19:06;9.44;73.37
66576;SHT31;53428;47.686;16.584;2024-03-17T20:24:06;9.27;74.17
66576;SHT31;53428;47.686;16.584;2024-03-17T20:29:06;9.28;74.59
66576;SHT31;53428;47.686;16.584;2024-03-17T20:34:05;9.30;74.65
66576;SHT31;53428;47.686;16.584;2024-03-17T20:39:04;9.32;74.81
66576;SHT31;53428;47.686;16.584;2024-03-17T20:44:03;9.28;75.31
66576;SHT31;53428;47.686;16.584;2024-03-17T20:49:03;9.08;76.68
66576;SHT31;53428;47.686;16.584;2024-03-17T20:54:02;9.06;77.24
66576;SHT31;53428;47.686;16.584;2024-03-17T20:59:02;8.97;78.14
66576;SHT31;53428;47.686;16.584;2024-03-17T21:04:02;8.79;79.34
66576;SHT31;53428;47.686;16.584;2024-03-17T21:09:03;8.83;79.15
66576;SHT31;53428;47.686;16.584;2024-03-17T21:14:04;8.83;78.01
66576;SHT31;53428;47.686;16.584;2024-03-17T21:19:03;8.75;77.74
66576;SHT31;53428;47.686;16.584;2024-03-17T21:24:03;8.66;77.90
66576;SHT31;53428;47.686;16.584;2024-03-17T21:29:02;8.46;78.48
66576;SHT31;53428;47.686;16.584;2024-03-17T21:34:02;8.20;79.03
66576;SHT31;53428;47.686;16.584;2024-03-17T21:39:02;8.22;79.17
66576;SHT31;53428;47.686;16.584;2024-03-17T21:44:06;8.39;75.77
66576;SHT31;53428;47.686;16.584;2024-03-17T21:49:06;8.31;75.04
66576;SHT31;53428;47.686;16.584;2024-03-17T21:54:05;8.37;74.85
66576;SHT31;53428;47.686;16.584;2024-03-17T21:59:06;8.39;75.14
66576;SHT31;53428;47.686;16.584;2024-03-17T22:04:05;8.45;74.34
66576;SHT31;53428;47.686;16.584;2024-03-17T22:09:04;8.22;74.56
66576;SHT31;53428;47.686;16.584;2024-03-17T22:14:03;8.03;75.02
66576;SHT31;53428;47.686;16.584;2024-03-17T22:19:03;7.97;75.73
66576;SHT31;53428;47.686;16.584;2024-03-17T22:24:02;7.77;76.24
66576;SHT31;53428;47.686;16.584;2024-03-17T22:29:01;7.66;78.47
66576;SHT31;53428;47.686;16.584;2024-03-17T22:34:02;7.59;79.77
66576;SHT31;53428;47.686;16.584;2024-03-17T22:39:01;7.36;79.37
66576;SHT31;53428;47.686;16.584;2024-03-17T22:44:01;7.45;79.31
66576;SHT31;53428;47.686;16.584;2024-03-17T22:49:00;7.48;80.73
66576;SHT31;53428;47.686;16.584;2024-03-17T22:53:59;7.31;80.38
66576;SHT31;53428;47.686;16.584;2024-03-17T22:58:58;7.31;79.08
66576;SHT31;53428;47.686;16.584;2024-03-17T23:03:59;7.34;78.06
66576;SHT31;53428;47.686;16.584;2024-03-17T23:09:00;7.34;78.10
66576;SHT31;53428;47.686;16.584;2024-03-17T23:13:59;7.34;77.00
66576;SHT31;53428;47.686;16.584;2024-03-17T23:18:58;7.36;76.40
66576;SHT31;53428;47.686;16.584;2024-03-17T23:23:58;7.32;76.88
66576;SHT31;53428;47.686;16.584;2024-03-17T23:28:57;7.15;77.44
66576;SHT31;53428;47.686;16.584;2024-03-17T23:33:56;7.26;79.21
66576;SHT31;53428;47.686;16.584;2024-03-17T23:38:58;7.16;80.46
66576;SHT31;53428;47.686;16.584;2024-03-17T23:43:58;7.11;79.98
66576;SHT31;53428;47.686;16.584;2024-03-17T23:48:57;7.29;78.98
66576;SHT31;53428;47.686;16.584;2024-03-17T23:53:56;7.26;80.23
66576;SHT31;53428;47.686;16.584;2024-03-17T23:58:56;6.91;81.81
